sensor_id;sensor_type;location;lat;lon;timestamp;P1;durP1;ratioP1;P2;durP2;ratioP2
45382;SDS011;42455;51.660;5.824;2023-12-29T00:03:31;5.0;;;2.0;;
45382;SDS011;42455;51.660;5.824;2023-12-29T00:08:37;5.0;;;2.0;;
45382;SDS011;42455;51.660;5.824;2023-12-29T00:13:43;6.0;;;2.0;;
45382;SDS011;42455;51.660;5.824;2023-12-29T00:18:49;5.0;;;1.0;;
45382;SDS011;42455;51.660;5.824;2023-12-29T00:23:55;6.0;;;2.0;;
45382;SDS011;42455;51.660;5.824;2023-12-29T00:29:02;6.0;;;1.0;;
45382;SDS011;42455;51.660;5.824;2023-12-29T00:34:08;4.0;;;1.0;;
45382;SDS011;42455;51.660;5.824;2023-12-29T00:39:14;6.0;;;2.0;;
45382;SDS011;42455;51.660;5.824;2023-12-29T00:44:20;7.0;;;2.0;;
45382;SDS011;42455;51.660;5.824;2023-12-29T00:49:26;6.0;;;1.0;;
45382;SDS011;42455;51.660;5.824;2023-12-29T00:54:33;4.0;;;1.0;;
45382;SDS011;42455;51.660;5.824;2023-12-29T00:59:39;5.0;;;2.0;;
45382;SDS011;42455;51.660;5.824;2023-12-29T01:04:45;5.0;;;2.0;;
45382;SDS011;42455;51.660;5.824;2023-12-29T01:09:51;5.0;;;1.0;;
45382;SDS011;42455;51.660;5.824;2023-12-29T01:14:58;6.0;;;2.0;;
45382;SDS011;42455;51.660;5.824;2023-12-29T01:20:04;6.0;;;2.0;;
45382;SDS011;42455;51.660;5.824;2023-12-29T01:25:10;6.0;;;2.0;;
45382;SDS011;42455;51.660;5.824;2023-12-29T01:30:16;8.0;;;2.0;;
45382;SDS011;42455;51.660;5.824;2023-12-29T01:35:22;7.5;;;2.0;;
45382;SDS011;42455;51.660;5.824;2023-12-29T01:40:29;5.0;;;1.0;;
45382;SDS011;42455;51.660;5.824;2023-12-29T01:45:35;5.0;;;2.0;;
45382;SDS011;42455;51.660;5.824;2023-12-29T01:50:44;6.0;;;1.0;;
45382;SDS011;42455;51.660;5.824;2023-12-29T01:55:47;5.0;;;2.0;;
45382;SDS011;42455;51.660;5.824;2023-12-29T02:00:53;7.0;;;2.0;;
45382;SDS011;42455;51.660;5.824;2023-12-29T02:06:00;5.5;;;2.0;;
45382;SDS011;42455;51.660;5.824;2023-12-29T02:11:06;6.0;;;2.0;;
45382;SDS011;42455;51.660;5.824;2023-12-29T02:16:37;5.0;;;2.0;;
45382;SDS011;42455;51.660;5.824;2023-12-29T02:21:22;8.0;;;2.0;;
45382;SDS011;42455;51.660;5.824;2023-12-29T02:26:27;6.0;;;2.0;;
45382;SDS011;42455;51.660;5.824;2023-12-29T02:31:48;6.0;;;2.0;;
45382;SDS011;42455;51.660;5.824;2023-12-29T02:36:38;8.5;;;2.0;;
45382;SDS011;42455;51.660;5.824;2023-12-29T02:41:43;5.0;;;2.0;;
45382;SDS011;42455;51.660;5.824;2023-12-29T02:46:49;6.0;;;2.0;;
45382;SDS011;42455;51.660;5.824;2023-12-29T02:51:55;8.0;;;2.0;;
45382;SDS011;42455;51.660;5.824;2023-12-29T02:57:02;6.0;;;2.0;;
45382;SDS011;42455;51.660;5.824;2023-12-29T03:02:08;6.0;;;2.0;;
45382;SDS011;42455;51.660;5.824;2023-12-29T03:07:14;6.0;;;2.0;;
45382;SDS011;42455;51.660;5.824;2023-12-29T03:12:20;6.0;;;2.0;;
45382;SDS011;42455;51.660;5.824;2023-12-29T03:17:27;7.0;;;2.0;;
45382;SDS011;42455;51.660;5.824;2023-12-29T03:22:33;7.0;;;2.0;;
45382;SDS011;42455;51.660;5.824;2023-12-29T03:27:39;6.0;;;1.0;;
45382;SDS011;42455;51.660;5.824;2023-12-29T03:32:45;5.0;;;2.0;;
45382;SDS011;42455;51.660;5.824;2023-12-29T03:37:51;6.0;;;1.5;;
45382;SDS011;42455;51.660;5.824;2023-12-29T03:42:58;7.0;;;2.0;;
45382;SDS011;42455;51.660;5.824;2023-12-29T03:48:04;4.5;;;2.0;;
45382;SDS011;42455;51.660;5.824;2023-12-29T03:53:10;7.0;;;2.0;;
45382;SDS011;42455;51.660;5.824;2023-12-29T03:58:16;8.0;;;2.0;;
45382;SDS011;42455;51.660;5.824;2023-12-29T04:03:23;8.0;;;2.0;;
45382;SDS011;42455;51.660;5.824;2023-12-29T04:08:29;6.0;;;2.0;;
45382;SDS011;42455;51.660;5.824;2023-12-29T04:13:35;7.0;;;2.0;;
45382;SDS011;42455;51.660;5.824;2023-12-29T04:18:41;6.5;;;2.0;;
45382;SDS011;42455;51.660;5.824;2023-12-29T04:23:47;9.5;;;2.0;;
45382;SDS011;42455;51.660;5.824;2023-12-29T04:28:53;8.0;;;2.0;;
45382;SDS011;42455;51.660;5.824;2023-12-29T04:34:00;6.0;;;2.0;;
45382;SDS011;42455;51.660;5.824;2023-12-29T04:39:06;6.0;;;2.0;;
45382;SDS011;42455;51.660;5.824;2023-12-29T04:44:12;6.0;;;2.0;;
45382;SDS011;42455;51.660;5.824;2023-12-29T04:49:18;7.0;;;2.0;;
45382;SDS011;42455;51.660;5.824;2023-12-29T04:54:25;7.5;;;2.0;;
45382;SDS011;42455;51.660;5.824;2023-12-29T04:59:31;11.0;;;2.0;;
45382;SDS011;42455;51.660;5.824;2023-12-29T05:04:37;7.0;;;2.0;;
45382;SDS011;42455;51.660;5.824;2023-12-29T05:09:43;7.0;;;2.0;;
45382;SDS011;42455;51.660;5.824;2023-12-29T05:14:48;6.0;;;2.0;;
45382;SDS011;42455;51.660;5.824;2023-12-29T05:19:55;8.0;;;2.0;;
45382;SDS011;42455;51.660;5.824;2023-12-29T05:25:01;8.5;;;2.0;;
45382;SDS011;42455;51.660;5.824;2023-12-29T05:30:07;6.0;;;2.0;;
45382;SDS011;42455;51.660;5.824;2023-12-29T05:35:13;7.5;;;2.0;;
45382;SDS011;42455;51.660;5.824;2023-12-29T05:40:19;6.0;;;2.0;;
45382;SDS011;42455;51.660;5.824;2023-12-29T05:45:26;9.0;;;2.0;;
45382;SDS011;42455;51.660;5.824;2023-12-29T05:50:32;9.0;;;2.0;;
45382;SDS011;42455;51.660;5.824;2023-12-29T05:55:38;9.0;;;2.0;;
45382;SDS011;42455;51.660;5.824;2023-12-29T06:00:44;7.0;;;2.0;;
45382;SDS011;42455;51.660;5.824;2023-12-29T06:05:51;8.5;;;2.0;;
45382;SDS011;42455;51.660;5.824;2023-12-29T06:10:57;9.0;;;2.0;;
45382;SDS011;42455;51.660;5.824;2023-12-29T06:16:03;7.0;;;2.0;;
45382;SDS011;42455;51.660;5.824;2023-12-29T06:21:09;6.0;;;2.0;;
45382;SDS011;42455;51.660;5.824;2023-12-29T06:26:15;7.0;;;2.0;;
45382;SDS011;42455;51.660;5.824;2023-12-29T06:31:21;7.5;;;2.0;;
45382;SDS011;42455;51.660;5.824;2023-12-29T06:36:28;7.0;;;2.0;;
45382;SDS011;42455;51.660;5.824;2023-12-29T06:41:34;7.0;;;2.0;;
45382;SDS011;42455;51.660;5.824;2023-12-29T06:46:40;6.0;;;2.0;;
45382;SDS011;42455;51.660;5.824;2023-12-29T06:51:46;6.5;;;2.0;;
45382;SDS011;42455;51.660;5.824;2023-12-29T06:56:53;7.0;;;2.0;;
45382;SDS011;42455;51.660;5.824;2023-12-29T07:01:59;6.0;;;2.0;;
45382;SDS011;42455;51.660;5.824;2023-12-29T07:07:05;5.0;;;2.0;;
45382;SDS011;42455;51.660;5.824;2023-12-29T07:12:11;6.0;;;2.0;;
45382;SDS011;42455;51.660;5.824;2023-12-29T07:17:17;6.0;;;2.0;;
45382;SDS011;42455;51.660;5.824;2023-12-29T07:22:24;6.0;;;2.0;;
45382;SDS011;42455;51.660;5.824;2023-12-29T07:27:30;5.0;;;1.5;;
45382;SDS011;42455;51.660;5.824;2023-12-29T07:32:36;5.0;;;1.0;;
45382;SDS011;42455;51.660;5.824;2023-12-29T07:37:42;7.0;;;2.0;;
45382;SDS011;42455;51.660;5.824;2023-12-29T07:42:48;5.0;;;2.0;;
45382;SDS011;42455;51.660;5.824;2023-12-29T07:47:55;5.0;;;1.0;;
45382;SDS011;42455;51.660;5.824;2023-12-29T07:53:01;5.0;;;1.0;;
45382;SDS011;42455;51.660;5.824;2023-12-29T07:58:07;3.0;;;1.0;;
45382;SDS011;42455;51.660;5.824;2023-12-29T08:03:13;5.0;;;1.0;;
45382;SDS011;42455;51.660;5.824;2023-12-29T08:08:19;4.0;;;1.0;;
45382;SDS011;42455;51.660;5.824;2023-12-29T08:13:26;5.0;;;1.0;;
45382;SDS011;42455;51.660;5.824;2023-12-29T08:23:38;4.0;;;1.0;;
45382;SDS011;42455;51.660;5.824;2023-12-29T08:28:44;4.0;;;1.0;;
45382;SDS011;42455;51.660;5.824;2023-12-29T08:33:51;3.0;;;1.0;;
45382;SDS011;42455;51.660;5.824;2023-12-29T08:38:57;4.0;;;1.0;;
45382;SDS011;42455;51.660;5.824;2023-12-29T08:44:03;3.0;;;1.0;;
45382;SDS011;42455;51.660;5.824;2023-12-29T08:54:15;3.0;;;1.0;;
45382;SDS011;42455;51.660;5.824;2023-12-29T08:59:22;3.0;;;1.0;;
45382;SDS011;42455;51.660;5.824;2023-12-29T09:04:28;2.0;;;1.0;;
45382;SDS011;42455;51.660;5.824;2023-12-29T09:09:34;2.0;;;1.0;;
45382;SDS011;42455;51.660;5.824;2023-12-29T09:14:40;2.0;;;1.0;;
45382;SDS011;42455;51.660;5.824;2023-12-29T09:19:46;3.0;;;1.0;;
45382;SDS011;42455;51.660;5.824;2023-12-29T09:24:53;3.0;;;1.0;;
45382;SDS011;42455;51.660;5.824;2023-12-29T09:29:59;2.0;;;1.0;;
45382;SDS011;42455;51.660;5.824;2023-12-29T09:35:05;4.0;;;1.0;;
45382;SDS011;42455;51.660;5.824;2023-12-29T09:40:12;3.0;;;1.0;;
45382;SDS011;42455;51.660;5.824;2023-12-29T09:45:19;1.5;;;0.0;;
45382;SDS011;42455;51.660;5.824;2023-12-29T09:50:24;3.0;;;1.0;;
45382;SDS011;42455;51.660;5.824;2023-12-29T09:55:30;1.0;;;0.0;;
45382;SDS011;42455;51.660;5.824;2023-12-29T10:00:36;2.0;;;0.0;;
45382;SDS011;42455;51.660;5.824;2023-12-29T10:05:42;1.0;;;0.0;;
45382;SDS011;42455;51.660;5.824;2023-12-29T10:10:48;1.0;;;0.0;;
45382;SDS011;42455;51.660;5.824;2023-12-29T10:16:41;2.0;;;0.0;;
45382;SDS011;42455;51.660;5.824;2023-12-29T10:24:15;2.0;;;0.0;;
45382;SDS011;42455;51.660;5.824;2023-12-29T10:26:07;2.0;;;0.5;;
45382;SDS011;42455;51.660;5.824;2023-12-29T10:31:15;2.0;;;1.0;;
45382;SDS011;42455;51.660;5.824;2023-12-29T10:36:20;2.0;;;0.0;;
45382;SDS011;42455;51.660;5.824;2023-12-29T10:41:26;1.0;;;0.0;;
45382;SDS011;42455;51.660;5.824;2023-12-29T10:46:31;1.0;;;0.0;;
45382;SDS011;42455;51.660;5.824;2023-12-29T10:51:37;1.5;;;0.0;;
45382;SDS011;42455;51.660;5.824;2023-12-29T10:56:43;1.0;;;0.0;;
45382;SDS011;42455;51.660;5.824;2023-12-29T11:01:50;1.0;;;0.0;;
45382;SDS011;42455;51.660;5.824;2023-12-29T11:06:56;1.0;;;0.0;;
45382;SDS011;42455;51.660;5.824;2023-12-29T11:12:03;2.0;;;0.0;;
45382;SDS011;42455;51.660;5.824;2023-12-29T11:17:07;3.0;;;1.0;;
45382;SDS011;42455;51.660;5.824;2023-12-29T11:22:14;2.0;;;1.0;;
45382;SDS011;42455;51.660;5.824;2023-12-29T11:27:20;2.0;;;1.0;;
45382;SDS011;42455;51.660;5.824;2023-12-29T11:32:29;2.0;;;1.0;;
45382;SDS011;42455;51.660;5.824;2023-12-29T11:38:49;2.0;;;1.0;;
45382;SDS011;42455;51.660;5.824;2023-12-29T11:43:23;5.0;;;1.0;;
45382;SDS011;42455;51.660;5.824;2023-12-29T11:47:44;4.0;;;1.0;;
45382;SDS011;42455;51.660;5.824;2023-12-29T11:52:51;5.0;;;1.0;;
45382;SDS011;42455;51.660;5.824;2023-12-29T11:57:57;5.0;;;1.0;;
45382;SDS011;42455;51.660;5.824;2023-12-29T12:03:13;4.0;;;1.0;;
45382;SDS011;42455;51.660;5.824;2023-12-29T12:08:09;4.0;;;1.0;;
45382;SDS011;42455;51.660;5.824;2023-12-29T12:13:43;5.0;;;2.0;;
45382;SDS011;42455;51.660;5.824;2023-12-29T12:18:22;4.0;;;1.0;;
45382;SDS011;42455;51.660;5.824;2023-12-29T12:23:28;3.5;;;1.0;;
45382;SDS011;42455;51.660;5.824;2023-12-29T12:28:34;4.0;;;1.0;;
45382;SDS011;42455;51.660;5.824;2023-12-29T12:33:40;2.0;;;1.0;;
45382;SDS011;42455;51.660;5.824;2023-12-29T12:38:50;3.0;;;1.0;;
45382;SDS011;42455;51.660;5.824;2023-12-29T12:44:06;3.0;;;1.0;;
45382;SDS011;42455;51.660;5.824;2023-12-29T12:48:59;2.0;;;1.0;;
45382;SDS011;42455;51.660;5.824;2023-12-29T12:54:05;2.0;;;1.0;;
45382;SDS011;42455;51.660;5.824;2023-12-29T12:59:12;1.0;;;1.0;;
45382;SDS011;42455;51.660;5.824;2023-12-29T13:04:18;2.0;;;1.0;;
45382;SDS011;42455;51.660;5.824;2023-12-29T13:09:24;2.0;;;1.0;;
45382;SDS011;42455;51.660;5.824;2023-12-29T13:14:30;2.0;;;1.0;;
45382;SDS011;42455;51.660;5.824;2023-12-29T13:19:36;2.0;;;1.0;;
45382;SDS011;42455;51.660;5.824;2023-12-29T13:24:43;1.0;;;1.0;;
45382;SDS011;42455;51.660;5.824;2023-12-29T13:29:49;1.0;;;1.0;;
45382;SDS011;42455;51.660;5.824;2023-12-29T13:36:05;1.0;;;1.0;;
45382;SDS011;42455;51.660;5.824;2023-12-29T13:41:39;1.0;;;1.0;;
45382;SDS011;42455;51.660;5.824;2023-12-29T13:45:08;1.0;;;1.0;;
45382;SDS011;42455;51.660;5.824;2023-12-29T13:50:14;2.0;;;1.0;;
45382;SDS011;42455;51.660;5.824;2023-12-29T13:55:20;2.0;;;1.0;;
45382;SDS011;42455;51.660;5.824;2023-12-29T14:00:27;3.0;;;1.0;;
45382;SDS011;42455;51.660;5.824;2023-12-29T14:06:03;3.0;;;2.0;;
45382;SDS011;42455;51.660;5.824;2023-12-29T14:10:38;3.0;;;2.0;;
45382;SDS011;42455;51.660;5.824;2023-12-29T14:15:45;3.0;;;2.0;;
45382;SDS011;42455;51.660;5.824;2023-12-29T14:20:51;5.0;;;2.0;;
45382;SDS011;42455;51.660;5.824;2023-12-29T14:26:01;4.0;;;2.0;;
45382;SDS011;42455;51.660;5.824;2023-12-29T14:31:03;4.0;;;1.0;;
45382;SDS011;42455;51.660;5.824;2023-12-29T14:36:10;4.0;;;2.0;;
45382;SDS011;42455;51.660;5.824;2023-12-29T14:41:16;3.0;;;1.0;;
45382;SDS011;42455;51.660;5.824;2023-12-29T14:46:22;2.0;;;1.0;;
45382;SDS011;42455;51.660;5.824;2023-12-29T14:51:28;2.0;;;1.0;;
45382;SDS011;42455;51.660;5.824;2023-12-29T14:56:34;3.0;;;1.0;;
45382;SDS011;42455;51.660;5.824;2023-12-29T15:01:41;2.0;;;1.0;;
45382;SDS011;42455;51.660;5.824;2023-12-29T15:06:47;2.0;;;1.0;;
45382;SDS011;42455;51.660;5.824;2023-12-29T15:11:53;2.0;;;1.0;;
45382;SDS011;42455;51.660;5.824;2023-12-29T15:16:59;3.0;;;1.0;;
45382;SDS011;42455;51.660;5.824;2023-12-29T15:22:05;3.0;;;1.0;;
45382;SDS011;42455;51.660;5.824;2023-12-29T15:27:12;2.0;;;1.0;;
45382;SDS011;42455;51.660;5.824;2023-12-29T15:32:18;2.0;;;1.0;;
45382;SDS011;42455;51.660;5.824;2023-12-29T15:37:24;2.0;;;1.0;;
45382;SDS011;42455;51.660;5.824;2023-12-29T15:42:30;2.0;;;1.0;;
45382;SDS011;42455;51.660;5.824;2023-12-29T15:47:37;2.0;;;0.0;;
45382;SDS011;42455;51.660;5.824;2023-12-29T15:52:43;1.0;;;1.0;;
45382;SDS011;42455;51.660;5.824;2023-12-29T15:57:49;1.0;;;0.0;;
45382;SDS011;42455;51.660;5.824;2023-12-29T16:02:55;2.0;;;1.0;;
45382;SDS011;42455;51.660;5.824;2023-12-29T16:08:01;2.0;;;1.0;;
45382;SDS011;42455;51.660;5.824;2023-12-29T16:13:07;3.0;;;1.0;;
45382;SDS011;42455;51.660;5.824;2023-12-29T16:18:14;3.0;;;2.0;;
45382;SDS011;42455;51.660;5.824;2023-12-29T16:23:20;2.0;;;1.0;;
45382;SDS011;42455;51.660;5.824;2023-12-29T16:28:26;3.0;;;1.0;;
45382;SDS011;42455;51.660;5.824;2023-12-29T16:33:32;3.0;;;2.0;;
45382;SDS011;42455;51.660;5.824;2023-12-29T16:38:45;3.0;;;2.0;;
45382;SDS011;42455;51.660;5.824;2023-12-29T16:43:45;4.0;;;2.0;;
45382;SDS011;42455;51.660;5.824;2023-12-29T16:48:50;4.0;;;2.0;;
45382;SDS011;42455;51.660;5.824;2023-12-29T16:53:56;3.0;;;1.0;;
45382;SDS011;42455;51.660;5.824;2023-12-29T16:59:02;5.0;;;2.0;;
45382;SDS011;42455;51.660;5.824;2023-12-29T17:04:09;5.0;;;2.0;;
45382;SDS011;42455;51.660;5.824;2023-12-29T17:09:15;4.0;;;2.0;;
45382;SDS011;42455;51.660;5.824;2023-12-29T17:14:21;4.0;;;2.0;;
45382;SDS011;42455;51.660;5.824;2023-12-29T17:19:27;4.5;;;2.0;;
45382;SDS011;42455;51.660;5.824;2023-12-29T17:24:34;5.0;;;2.0;;
45382;SDS011;42455;51.660;5.824;2023-12-29T17:29:40;4.0;;;2.0;;
45382;SDS011;42455;51.660;5.824;2023-12-29T17:34:46;5.0;;;2.0;;
45382;SDS011;42455;51.660;5.824;2023-12-29T17:39:52;4.0;;;1.0;;
45382;SDS011;42455;51.660;5.824;2023-12-29T17:44:58;4.0;;;1.0;;
45382;SDS011;42455;51.660;5.824;2023-12-29T17:50:04;4.0;;;2.0;;
45382;SDS011;42455;51.660;5.824;2023-12-29T17:55:11;5.0;;;2.0;;
45382;SDS011;42455;51.660;5.824;2023-12-29T18:00:17;5.0;;;2.0;;
45382;SDS011;42455;51.660;5.824;2023-12-29T18:05:23;5.0;;;2.0;;
45382;SDS011;42455;51.660;5.824;2023-12-29T18:10:29;6.0;;;2.0;;
45382;SDS011;42455;51.660;5.824;2023-12-29T18:15:35;6.0;;;2.0;;
45382;SDS011;42455;51.660;5.824;2023-12-29T18:20:42;5.0;;;2.0;;
45382;SDS011;42455;51.660;5.824;2023-12-29T18:25:48;6.0;;;2.0;;
45382;SDS011;42455;51.660;5.824;2023-12-29T18:30:54;7.0;;;3.0;;
45382;SDS011;42455;51.660;5.824;2023-12-29T18:36:01;5.0;;;2.0;;
45382;SDS011;42455;51.660;5.824;2023-12-29T18:41:07;6.0;;;2.0;;
45382;SDS011;42455;51.660;5.824;2023-12-29T18:46:13;6.0;;;2.0;;
45382;SDS011;42455;51.660;5.824;2023-12-29T18:51:19;6.0;;;2.0;;
45382;SDS011;42455;51.660;5.824;2023-12-29T18:56:25;7.0;;;2.0;;
45382;SDS011;42455;51.660;5.824;2023-12-29T19:01:31;8.0;;;2.0;;
45382;SDS011;42455;51.660;5.824;2023-12-29T19:06:38;7.0;;;3.0;;
45382;SDS011;42455;51.660;5.824;2023-12-29T19:11:44;8.0;;;2.0;;
45382;SDS011;42455;51.660;5.824;2023-12-29T19:16:50;8.0;;;3.0;;
45382;SDS011;42455;51.660;5.824;2023-12-29T19:21:56;9.0;;;2.0;;
45382;SDS011;42455;51.660;5.824;2023-12-29T19:27:02;9.0;;;3.0;;
45382;SDS011;42455;51.660;5.824;2023-12-29T19:32:09;9.0;;;3.0;;
45382;SDS011;42455;51.660;5.824;2023-12-29T19:37:15;7.0;;;2.0;;
45382;SDS011;42455;51.660;5.824;2023-12-29T19:42:21;8.0;;;2.0;;
45382;SDS011;42455;51.660;5.824;2023-12-29T19:47:27;8.0;;;2.0;;
45382;SDS011;42455;51.660;5.824;2023-12-29T19:52:33;8.0;;;2.0;;
45382;SDS011;42455;51.660;5.824;2023-12-29T19:57:40;4.0;;;1.0;;
45382;SDS011;42455;51.660;5.824;2023-12-29T20:02:46;5.0;;;1.0;;
45382;SDS011;42455;51.660;5.824;2023-12-29T20:07:52;6.0;;;2.0;;
45382;SDS011;42455;51.660;5.824;2023-12-29T20:12:58;6.0;;;2.0;;
45382;SDS011;42455;51.660;5.824;2023-12-29T20:18:05;6.0;;;2.0;;
45382;SDS011;42455;51.660;5.824;2023-12-29T20:23:11;7.0;;;2.0;;
45382;SDS011;42455;51.660;5.824;2023-12-29T20:28:17;7.0;;;3.0;;
45382;SDS011;42455;51.660;5.824;2023-12-29T20:33:23;10.0;;;5.0;;
45382;SDS011;42455;51.660;5.824;2023-12-29T20:38:29;9.0;;;4.0;;
45382;SDS011;42455;51.660;5.824;2023-12-29T20:43:35;8.0;;;4.0;;
45382;SDS011;42455;51.660;5.824;2023-12-29T20:48:42;9.0;;;3.0;;
45382;SDS011;42455;51.660;5.824;2023-12-29T20:53:49;11.0;;;3.0;;
45382;SDS011;42455;51.660;5.824;2023-12-29T20:58:54;10.0;;;3.0;;
45382;SDS011;42455;51.660;5.824;2023-12-29T21:04:00;8.0;;;3.0;;
45382;SDS011;42455;51.660;5.824;2023-12-29T21:09:07;10.0;;;4.0;;
45382;SDS011;42455;51.660;5.824;2023-12-29T21:14:13;11.0;;;3.0;;
45382;SDS011;42455;51.660;5.824;2023-12-29T21:19:19;12.0;;;3.0;;
45382;SDS011;42455;51.660;5.824;2023-12-29T21:24:25;10.0;;;3.0;;
45382;SDS011;42455;51.660;5.824;2023-12-29T21:29:31;13.0;;;3.0;;
45382;SDS011;42455;51.660;5.824;2023-12-29T21:34:38;10.0;;;3.0;;
45382;SDS011;42455;51.660;5.824;2023-12-29T21:44:50;9.0;;;3.0;;
45382;SDS011;42455;51.660;5.824;2023-12-29T21:49:56;9.0;;;3.0;;
45382;SDS011;42455;51.660;5.824;2023-12-29T21:55:02;9.0;;;3.0;;
45382;SDS011;42455;51.660;5.824;2023-12-29T22:00:09;10.0;;;3.0;;
45382;SDS011;42455;51.660;5.824;2023-12-29T22:05:15;12.5;;;3.0;;
45382;SDS011;42455;51.660;5.824;2023-12-29T22:10:21;11.0;;;3.0;;
45382;SDS011;42455;51.660;5.824;2023-12-29T22:15:27;9.0;;;2.0;;
45382;SDS011;42455;51.660;5.824;2023-12-29T22:20:32;9.0;;;2.0;;
45382;SDS011;42455;51.660;5.824;2023-12-29T22:25:39;10.0;;;2.5;;
45382;SDS011;42455;51.660;5.824;2023-12-29T22:30:45;11.0;;;3.0;;
45382;SDS011;42455;51.660;5.824;2023-12-29T22:35:51;9.0;;;2.0;;
45382;SDS011;42455;51.660;5.824;2023-12-29T22:40:57;11.0;;;3.0;;
45382;SDS011;42455;51.660;5.824;2023-12-29T22:46:04;9.0;;;2.0;;
45382;SDS011;42455;51.660;5.824;2023-12-29T22:51:10;10.0;;;3.0;;
45382;SDS011;42455;51.660;5.824;2023-12-29T22:56:16;10.0;;;2.5;;
45382;SDS011;42455;51.660;5.824;2023-12-29T23:01:22;11.0;;;3.0;;
45382;SDS011;42455;51.660;5.824;2023-12-29T23:06:28;11.0;;;3.0;;
45382;SDS011;42455;51.660;5.824;2023-12-29T23:11:35;10.5;;;3.0;;
45382;SDS011;42455;51.660;5.824;2023-12-29T23:16:41;10.0;;;3.0;;
45382;SDS011;42455;51.660;5.824;2023-12-29T23:21:47;10.0;;;2.0;;
45382;SDS011;42455;51.660;5.824;2023-12-29T23:26:53;8.0;;;2.0;;
45382;SDS011;42455;51.660;5.824;2023-12-29T23:31:59;8.0;;;2.0;;
45382;SDS011;42455;51.660;5.824;2023-12-29T23:37:06;8.0;;;2.0;;
45382;SDS011;42455;51.660;5.824;2023-12-29T23:42:12;12.0;;;3.0;;
45382;SDS011;42455;51.660;5.824;2023-12-29T23:47:18;10.0;;;2.0;;
45382;SDS011;42455;51.660;5.824;2023-12-29T23:52:24;7.0;;;2.0;;
45382;SDS011;42455;51.660;5.824;2023-12-29T23:57:30;6.0;;;2.0;;
